sensor_id;sensor_type;location;lat;lon;timestamp;P1;durP1;ratioP1;P2;durP2;ratioP2
49101;SDS011;34913;47.520;19.186;2022-09-03T00:02:34;8.80;;;3.80;;
49101;SDS011;34913;47.520;19.186;2022-09-03T00:05:22;5.45;;;3.78;;
49101;SDS011;34913;47.520;19.186;2022-09-03T00:13:22;5.88;;;3.92;;
49101;SDS011;34913;47.520;19.186;2022-09-03T00:15:51;4.72;;;3.42;;
49101;SDS011;34913;47.520;19.186;2022-09-03T00:18:20;7.32;;;3.72;;
49101;SDS011;34913;47.520;19.186;2022-09-03T00:21:01;8.55;;;3.95;;
49101;SDS011;34913;47.520;19.186;2022-09-03T00:23:34;13.35;;;4.38;;
49101;SDS011;34913;47.520;19.186;2022-09-03T00:31:17;6.00;;;3.70;;
49101;SDS011;34913;47.520;19.186;2022-09-03T00:33:51;5.57;;;3.65;;
49101;SDS011;34913;47.520;19.186;2022-09-03T00:36:42;7.25;;;4.25;;
49101;SDS011;34913;47.520;19.186;2022-09-03T00:39:12;8.10;;;3.92;;
49101;SDS011;34913;47.520;19.186;2022-09-03T00:41:48;8.05;;;4.40;;
49101;SDS011;34913;47.520;19.186;2022-09-03T00:50:45;7.47;;;3.90;;
49101;SDS011;34913;47.520;19.186;2022-09-03T00:53:30;6.53;;;4.10;;
49101;SDS011;34913;47.520;19.186;2022-09-03T01:07:26;7.13;;;4.00;;
49101;SDS011;34913;47.520;19.186;2022-09-03T01:32:07;6.40;;;3.72;;
49101;SDS011;34913;47.520;19.186;2022-09-03T01:39:54;5.13;;;3.78;;
49101;SDS011;34913;47.520;19.186;2022-09-03T01:50:49;4.72;;;3.72;;
49101;SDS011;34913;47.520;19.186;2022-09-03T02:01:08;5.85;;;4.00;;
49101;SDS011;34913;47.520;19.186;2022-09-03T02:03:39;6.88;;;3.88;;
49101;SDS011;34913;47.520;19.186;2022-09-03T02:06:09;8.40;;;4.05;;
49101;SDS011;34913;47.520;19.186;2022-09-03T02:08:35;6.28;;;3.88;;
49101;SDS011;34913;47.520;19.186;2022-09-03T02:11:02;5.63;;;3.97;;
49101;SDS011;34913;47.520;19.186;2022-09-03T02:13:36;6.15;;;3.60;;
49101;SDS011;34913;47.520;19.186;2022-09-03T02:16:21;6.63;;;4.10;;
49101;SDS011;34913;47.520;19.186;2022-09-03T02:18:50;6.00;;;3.65;;
49101;SDS011;34913;47.520;19.186;2022-09-03T02:21:22;5.60;;;3.78;;
49101;SDS011;34913;47.520;19.186;2022-09-03T02:23:49;6.68;;;3.75;;
49101;SDS011;34913;47.520;19.186;2022-09-03T02:26:17;5.95;;;4.03;;
49101;SDS011;34913;47.520;19.186;2022-09-03T02:28:46;5.80;;;3.85;;
49101;SDS011;34913;47.520;19.186;2022-09-03T02:31:12;5.65;;;3.88;;
49101;SDS011;34913;47.520;19.186;2022-09-03T02:33:39;4.68;;;3.80;;
49101;SDS011;34913;47.520;19.186;2022-09-03T02:36:07;5.28;;;3.85;;
49101;SDS011;34913;47.520;19.186;2022-09-03T02:38:34;6.85;;;4.00;;
49101;SDS011;34913;47.520;19.186;2022-09-03T02:41:00;5.72;;;3.72;;
49101;SDS011;34913;47.520;19.186;2022-09-03T02:43:30;6.65;;;3.80;;
49101;SDS011;34913;47.520;19.186;2022-09-03T02:46:19;5.07;;;3.83;;
49101;SDS011;34913;47.520;19.186;2022-09-03T02:48:46;4.82;;;3.65;;
49101;SDS011;34913;47.520;19.186;2022-09-03T02:51:12;6.65;;;3.80;;
49101;SDS011;34913;47.520;19.186;2022-09-03T02:53:37;8.52;;;3.92;;
49101;SDS011;34913;47.520;19.186;2022-09-03T02:56:03;6.32;;;3.85;;
49101;SDS011;34913;47.520;19.186;2022-09-03T02:58:29;8.73;;;4.00;;
49101;SDS011;34913;47.520;19.186;2022-09-03T03:00:57;5.90;;;3.80;;
49101;SDS011;34913;47.520;19.186;2022-09-03T03:03:23;5.03;;;3.88;;
49101;SDS011;34913;47.520;19.186;2022-09-03T03:05:49;7.22;;;4.18;;
49101;SDS011;34913;47.520;19.186;2022-09-03T03:08:17;5.55;;;4.07;;
49101;SDS011;34913;47.520;19.186;2022-09-03T03:10:48;6.13;;;3.78;;
49101;SDS011;34913;47.520;19.186;2022-09-03T03:13:16;10.10;;;4.07;;
49101;SDS011;34913;47.520;19.186;2022-09-03T03:15:42;6.80;;;4.03;;
49101;SDS011;34913;47.520;19.186;2022-09-03T03:18:08;6.90;;;3.70;;
49101;SDS011;34913;47.520;19.186;2022-09-03T03:20:36;6.90;;;3.80;;
49101;SDS011;34913;47.520;19.186;2022-09-03T03:23:02;8.88;;;3.72;;
49101;SDS011;34913;47.520;19.186;2022-09-03T03:25:31;6.18;;;3.75;;
49101;SDS011;34913;47.520;19.186;2022-09-03T03:27:57;5.32;;;3.67;;
49101;SDS011;34913;47.520;19.186;2022-09-03T03:30:22;5.57;;;3.90;;
49101;SDS011;34913;47.520;19.186;2022-09-03T03:32:48;5.88;;;3.70;;
49101;SDS011;34913;47.520;19.186;2022-09-03T03:35:13;5.13;;;3.95;;
49101;SDS011;34913;47.520;19.186;2022-09-03T03:37:39;6.85;;;4.00;;
49101;SDS011;34913;47.520;19.186;2022-09-03T03:40:04;5.43;;;3.90;;
49101;SDS011;34913;47.520;19.186;2022-09-03T03:42:34;7.00;;;4.57;;
49101;SDS011;34913;47.520;19.186;2022-09-03T03:45:00;4.97;;;4.18;;
49101;SDS011;34913;47.520;19.186;2022-09-03T03:47:27;7.60;;;4.40;;
49101;SDS011;34913;47.520;19.186;2022-09-03T03:49:55;8.55;;;4.60;;
49101;SDS011;34913;47.520;19.186;2022-09-03T03:52:21;5.88;;;4.10;;
49101;SDS011;34913;47.520;19.186;2022-09-03T03:54:46;6.40;;;4.20;;
49101;SDS011;34913;47.520;19.186;2022-09-03T03:57:14;7.72;;;4.07;;
49101;SDS011;34913;47.520;19.186;2022-09-03T03:59:39;6.38;;;4.10;;
49101;SDS011;34913;47.520;19.186;2022-09-03T04:02:05;5.18;;;4.00;;
49101;SDS011;34913;47.520;19.186;2022-09-03T04:04:31;6.47;;;4.00;;
49101;SDS011;34913;47.520;19.186;2022-09-03T04:06:56;5.20;;;4.43;;
49101;SDS011;34913;47.520;19.186;2022-09-03T04:09:22;6.53;;;4.47;;
49101;SDS011;34913;47.520;19.186;2022-09-03T04:11:47;7.25;;;4.10;;
49101;SDS011;34913;47.520;19.186;2022-09-03T04:14:14;6.15;;;3.97;;
49101;SDS011;34913;47.520;19.186;2022-09-03T04:16:39;6.40;;;4.68;;
49101;SDS011;34913;47.520;19.186;2022-09-03T04:19:05;6.93;;;4.75;;
49101;SDS011;34913;47.520;19.186;2022-09-03T04:21:30;5.80;;;4.07;;
49101;SDS011;34913;47.520;19.186;2022-09-03T04:23:56;8.07;;;4.30;;
49101;SDS011;34913;47.520;19.186;2022-09-03T04:26:29;5.43;;;4.30;;
49101;SDS011;34913;47.520;19.186;2022-09-03T04:28:56;8.15;;;4.55;;
49101;SDS011;34913;47.520;19.186;2022-09-03T04:31:26;5.88;;;4.40;;
49101;SDS011;34913;47.520;19.186;2022-09-03T04:33:52;5.75;;;4.30;;
49101;SDS011;34913;47.520;19.186;2022-09-03T04:36:19;8.55;;;4.57;;
49101;SDS011;34913;47.520;19.186;2022-09-03T04:38:47;10.05;;;4.75;;
49101;SDS011;34913;47.520;19.186;2022-09-03T04:41:15;9.75;;;4.85;;
49101;SDS011;34913;47.520;19.186;2022-09-03T04:43:43;9.15;;;5.07;;
49101;SDS011;34913;47.520;19.186;2022-09-03T04:46:09;7.93;;;5.22;;
49101;SDS011;34913;47.520;19.186;2022-09-03T04:48:36;7.43;;;5.50;;
49101;SDS011;34913;47.520;19.186;2022-09-03T04:51:09;10.57;;;5.60;;
49101;SDS011;34913;47.520;19.186;2022-09-03T04:53:38;11.88;;;5.40;;
49101;SDS011;34913;47.520;19.186;2022-09-03T04:56:38;7.40;;;5.45;;
49101;SDS011;34913;47.520;19.186;2022-09-03T04:58:59;7.15;;;5.38;;
49101;SDS011;34913;47.520;19.186;2022-09-03T05:01:27;6.07;;;5.18;;
49101;SDS011;34913;47.520;19.186;2022-09-03T05:03:55;9.10;;;5.32;;
49101;SDS011;34913;47.520;19.186;2022-09-03T05:06:22;7.40;;;5.65;;
49101;SDS011;34913;47.520;19.186;2022-09-03T05:08:49;9.52;;;6.57;;
49101;SDS011;34913;47.520;19.186;2022-09-03T05:11:17;8.35;;;6.85;;
49101;SDS011;34913;47.520;19.186;2022-09-03T05:13:45;8.90;;;6.85;;
49101;SDS011;34913;47.520;19.186;2022-09-03T05:16:13;9.30;;;7.03;;
49101;SDS011;34913;47.520;19.186;2022-09-03T05:18:39;10.32;;;7.00;;
49101;SDS011;34913;47.520;19.186;2022-09-03T05:21:07;8.45;;;6.45;;
49101;SDS011;34913;47.520;19.186;2022-09-03T05:23:35;9.68;;;6.07;;
49101;SDS011;34913;47.520;19.186;2022-09-03T05:26:02;8.82;;;6.35;;
49101;SDS011;34913;47.520;19.186;2022-09-03T05:28:33;9.23;;;6.20;;
49101;SDS011;34913;47.520;19.186;2022-09-03T05:31:04;8.35;;;5.43;;
49101;SDS011;34913;47.520;19.186;2022-09-03T05:33:37;8.70;;;6.32;;
49101;SDS011;34913;47.520;19.186;2022-09-03T05:36:07;9.13;;;6.22;;
49101;SDS011;34913;47.520;19.186;2022-09-03T05:38:34;8.82;;;6.88;;
49101;SDS011;34913;47.520;19.186;2022-09-03T05:41:00;9.70;;;6.03;;
49101;SDS011;34913;47.520;19.186;2022-09-03T05:43:27;11.43;;;6.40;;
49101;SDS011;34913;47.520;19.186;2022-09-03T05:45:57;8.35;;;6.20;;
49101;SDS011;34913;47.520;19.186;2022-09-03T05:48:24;10.32;;;6.57;;
49101;SDS011;34913;47.520;19.186;2022-09-03T05:50:57;9.77;;;6.63;;
49101;SDS011;34913;47.520;19.186;2022-09-03T05:53:23;14.32;;;6.10;;
49101;SDS011;34913;47.520;19.186;2022-09-03T05:55:56;10.93;;;5.78;;
49101;SDS011;34913;47.520;19.186;2022-09-03T05:58:35;8.80;;;5.20;;
49101;SDS011;34913;47.520;19.186;2022-09-03T06:01:13;9.45;;;5.15;;
49101;SDS011;34913;47.520;19.186;2022-09-03T06:03:41;5.50;;;4.82;;
49101;SDS011;34913;47.520;19.186;2022-09-03T06:06:08;6.57;;;4.38;;
49101;SDS011;34913;47.520;19.186;2022-09-03T06:08:34;8.27;;;4.80;;
49101;SDS011;34913;47.520;19.186;2022-09-03T06:11:02;6.32;;;4.10;;
49101;SDS011;34913;47.520;19.186;2022-09-03T06:13:28;7.85;;;4.13;;
49101;SDS011;34913;47.520;19.186;2022-09-03T06:15:55;4.95;;;3.95;;
49101;SDS011;34913;47.520;19.186;2022-09-03T06:18:28;5.53;;;4.30;;
49101;SDS011;34913;47.520;19.186;2022-09-03T06:20:54;7.53;;;4.22;;
49101;SDS011;34913;47.520;19.186;2022-09-03T06:23:21;6.05;;;4.03;;
49101;SDS011;34913;47.520;19.186;2022-09-03T06:25:47;9.02;;;3.63;;
49101;SDS011;34913;47.520;19.186;2022-09-03T06:28:23;5.40;;;3.78;;
49101;SDS011;34913;47.520;19.186;2022-09-03T06:30:51;7.38;;;3.70;;
49101;SDS011;34913;47.520;19.186;2022-09-03T06:33:17;6.93;;;3.53;;
49101;SDS011;34913;47.520;19.186;2022-09-03T06:35:42;5.57;;;3.72;;
49101;SDS011;34913;47.520;19.186;2022-09-03T06:38:08;7.18;;;3.92;;
49101;SDS011;34913;47.520;19.186;2022-09-03T06:40:37;5.35;;;3.70;;
49101;SDS011;34913;47.520;19.186;2022-09-03T06:43:02;6.28;;;4.03;;
49101;SDS011;34913;47.520;19.186;2022-09-03T06:45:31;5.30;;;3.67;;
49101;SDS011;34913;47.520;19.186;2022-09-03T06:47:56;4.03;;;3.63;;
49101;SDS011;34913;47.520;19.186;2022-09-03T06:50:22;8.18;;;4.47;;
49101;SDS011;34913;47.520;19.186;2022-09-03T06:52:51;6.13;;;3.90;;
49101;SDS011;34913;47.520;19.186;2022-09-03T06:55:19;6.88;;;3.90;;
49101;SDS011;34913;47.520;19.186;2022-09-03T06:57:47;5.90;;;4.10;;
49101;SDS011;34913;47.520;19.186;2022-09-03T07:00:14;5.45;;;4.20;;
49101;SDS011;34913;47.520;19.186;2022-09-03T07:02:39;6.70;;;4.32;;
49101;SDS011;34913;47.520;19.186;2022-09-03T07:05:06;5.20;;;4.38;;
49101;SDS011;34913;47.520;19.186;2022-09-03T07:07:32;5.95;;;4.10;;
49101;SDS011;34913;47.520;19.186;2022-09-03T07:09:58;7.20;;;4.78;;
49101;SDS011;34913;47.520;19.186;2022-09-03T07:12:23;6.82;;;4.50;;
49101;SDS011;34913;47.520;19.186;2022-09-03T07:14:49;6.03;;;4.30;;
49101;SDS011;34913;47.520;19.186;2022-09-03T07:17:14;8.70;;;4.18;;
49101;SDS011;34913;47.520;19.186;2022-09-03T07:19:40;8.25;;;4.07;;
49101;SDS011;34913;47.520;19.186;2022-09-03T07:22:05;10.38;;;4.10;;
49101;SDS011;34913;47.520;19.186;2022-09-03T07:24:33;5.22;;;3.88;;
49101;SDS011;34913;47.520;19.186;2022-09-03T07:26:59;7.53;;;4.13;;
49101;SDS011;34913;47.520;19.186;2022-09-03T07:29:25;5.90;;;3.92;;
49101;SDS011;34913;47.520;19.186;2022-09-03T07:31:51;5.95;;;4.00;;
49101;SDS011;34913;47.520;19.186;2022-09-03T07:34:17;7.50;;;4.30;;
49101;SDS011;34913;47.520;19.186;2022-09-03T07:36:44;7.43;;;4.28;;
49101;SDS011;34913;47.520;19.186;2022-09-03T07:39:11;8.35;;;4.57;;
49101;SDS011;34913;47.520;19.186;2022-09-03T07:41:38;6.88;;;4.05;;
49101;SDS011;34913;47.520;19.186;2022-09-03T07:44:07;8.68;;;4.25;;
49101;SDS011;34913;47.520;19.186;2022-09-03T07:46:34;6.07;;;4.28;;
49101;SDS011;34913;47.520;19.186;2022-09-03T07:49:01;8.07;;;3.70;;
49101;SDS011;34913;47.520;19.186;2022-09-03T07:51:28;5.28;;;4.07;;
49101;SDS011;34913;47.520;19.186;2022-09-03T07:53:56;6.55;;;3.80;;
49101;SDS011;34913;47.520;19.186;2022-09-03T07:56:24;6.55;;;4.10;;
49101;SDS011;34913;47.520;19.186;2022-09-03T07:58:51;5.65;;;3.97;;
49101;SDS011;34913;47.520;19.186;2022-09-03T08:01:17;9.82;;;4.60;;
49101;SDS011;34913;47.520;19.186;2022-09-03T08:03:46;7.13;;;3.80;;
49101;SDS011;34913;47.520;19.186;2022-09-03T08:06:14;5.90;;;3.80;;
49101;SDS011;34913;47.520;19.186;2022-09-03T08:08:40;5.80;;;3.63;;
49101;SDS011;34913;47.520;19.186;2022-09-03T08:11:07;5.47;;;3.50;;
49101;SDS011;34913;47.520;19.186;2022-09-03T08:16:02;8.32;;;3.40;;
49101;SDS011;34913;47.520;19.186;2022-09-03T08:18:28;5.05;;;3.40;;
49101;SDS011;34913;47.520;19.186;2022-09-03T08:20:58;6.80;;;3.00;;
49101;SDS011;34913;47.520;19.186;2022-09-03T08:23:24;5.60;;;2.90;;
49101;SDS011;34913;47.520;19.186;2022-09-03T08:25:56;5.30;;;2.67;;
49101;SDS011;34913;47.520;19.186;2022-09-03T08:28:23;6.25;;;2.58;;
49101;SDS011;34913;47.520;19.186;2022-09-03T08:30:48;4.18;;;2.50;;
49101;SDS011;34913;47.520;19.186;2022-09-03T08:33:13;5.45;;;2.70;;
49101;SDS011;34913;47.520;19.186;2022-09-03T08:35:39;4.18;;;2.50;;
49101;SDS011;34913;47.520;19.186;2022-09-03T08:38:04;8.70;;;2.90;;
49101;SDS011;34913;47.520;19.186;2022-09-03T08:40:31;5.97;;;2.60;;
49101;SDS011;34913;47.520;19.186;2022-09-03T08:43:13;5.40;;;3.00;;
49101;SDS011;34913;47.520;19.186;2022-09-03T08:45:42;7.07;;;2.75;;
49101;SDS011;34913;47.520;19.186;2022-09-03T08:48:11;6.43;;;3.15;;
49101;SDS011;34913;47.520;19.186;2022-09-03T08:50:41;3.83;;;2.55;;
49101;SDS011;34913;47.520;19.186;2022-09-03T08:55:50;3.60;;;2.58;;
49101;SDS011;34913;47.520;19.186;2022-09-03T08:58:21;2.92;;;2.08;;
49101;SDS011;34913;47.520;19.186;2022-09-03T09:01:09;6.88;;;2.38;;
49101;SDS011;34913;47.520;19.186;2022-09-03T09:08:53;3.80;;;2.20;;
49101;SDS011;34913;47.520;19.186;2022-09-03T09:11:59;5.70;;;2.08;;
49101;SDS011;34913;47.520;19.186;2022-09-03T09:14:44;7.43;;;3.13;;
49101;SDS011;34913;47.520;19.186;2022-09-03T09:23:09;4.28;;;2.47;;
49101;SDS011;34913;47.520;19.186;2022-09-03T09:25:30;10.18;;;2.92;;
49101;SDS011;34913;47.520;19.186;2022-09-03T09:28:11;5.07;;;2.55;;
49101;SDS011;34913;47.520;19.186;2022-09-03T09:30:43;3.70;;;2.45;;
49101;SDS011;34913;47.520;19.186;2022-09-03T09:33:11;4.32;;;2.80;;
49101;SDS011;34913;47.520;19.186;2022-09-03T09:35:38;10.27;;;3.90;;
49101;SDS011;34913;47.520;19.186;2022-09-03T09:38:06;9.07;;;3.80;;
49101;SDS011;34913;47.520;19.186;2022-09-03T09:40:35;7.55;;;3.60;;
49101;SDS011;34913;47.520;19.186;2022-09-03T09:45:28;5.47;;;3.13;;
49101;SDS011;34913;47.520;19.186;2022-09-03T09:47:54;7.45;;;3.45;;
49101;SDS011;34913;47.520;19.186;2022-09-03T09:50:21;6.57;;;3.20;;
49101;SDS011;34913;47.520;19.186;2022-09-03T09:52:47;5.43;;;3.45;;
49101;SDS011;34913;47.520;19.186;2022-09-03T09:55:16;4.10;;;3.38;;
49101;SDS011;34913;47.520;19.186;2022-09-03T09:57:43;4.30;;;3.08;;
49101;SDS011;34913;47.520;19.186;2022-09-03T10:00:11;5.50;;;3.40;;
49101;SDS011;34913;47.520;19.186;2022-09-03T10:02:45;4.50;;;3.03;;
49101;SDS011;34913;47.520;19.186;2022-09-03T10:07:58;4.97;;;2.80;;
49101;SDS011;34913;47.520;19.186;2022-09-03T10:10:26;6.05;;;2.80;;
49101;SDS011;34913;47.520;19.186;2022-09-03T10:13:00;4.47;;;2.30;;
49101;SDS011;34913;47.520;19.186;2022-09-03T10:15:39;5.93;;;2.60;;
49101;SDS011;34913;47.520;19.186;2022-09-03T10:20:59;4.60;;;2.55;;
49101;SDS011;34913;47.520;19.186;2022-09-03T10:23:58;4.55;;;2.70;;
49101;SDS011;34913;47.520;19.186;2022-09-03T10:26:29;9.32;;;3.28;;
49101;SDS011;34913;47.520;19.186;2022-09-03T10:28:58;3.53;;;2.78;;
49101;SDS011;34913;47.520;19.186;2022-09-03T10:37:17;3.83;;;2.58;;
49101;SDS011;34913;47.520;19.186;2022-09-03T10:46:10;4.18;;;2.40;;
49101;SDS011;34913;47.520;19.186;2022-09-03T10:51:13;4.05;;;2.10;;
49101;SDS011;34913;47.520;19.186;2022-09-03T10:59:31;5.35;;;2.15;;
49101;SDS011;34913;47.520;19.186;2022-09-03T11:05:13;3.22;;;2.30;;
49101;SDS011;34913;47.520;19.186;2022-09-03T11:07:50;3.55;;;2.00;;
49101;SDS011;34913;47.520;19.186;2022-09-03T11:13:06;5.63;;;2.65;;
49101;SDS011;34913;47.520;19.186;2022-09-03T11:15:41;5.57;;;3.00;;
49101;SDS011;34913;47.520;19.186;2022-09-03T11:20:49;2.95;;;2.05;;
49101;SDS011;34913;47.520;19.186;2022-09-03T11:23:18;5.18;;;2.05;;
49101;SDS011;34913;47.520;19.186;2022-09-03T11:25:48;2.42;;;1.90;;
49101;SDS011;34913;47.520;19.186;2022-09-03T11:33:45;3.15;;;1.58;;
49101;SDS011;34913;47.520;19.186;2022-09-03T11:36:21;4.55;;;2.00;;
49101;SDS011;34913;47.520;19.186;2022-09-03T11:38:52;2.00;;;1.63;;
49101;SDS011;34913;47.520;19.186;2022-09-03T11:43:50;3.58;;;2.10;;
49101;SDS011;34913;47.520;19.186;2022-09-03T11:53:51;3.72;;;1.95;;
49101;SDS011;34913;47.520;19.186;2022-09-03T11:56:19;2.92;;;1.60;;
49101;SDS011;34913;47.520;19.186;2022-09-03T11:58:44;1.88;;;1.30;;
49101;SDS011;34913;47.520;19.186;2022-09-03T12:01:11;3.65;;;1.67;;
49101;SDS011;34913;47.520;19.186;2022-09-03T12:03:43;2.55;;;1.60;;
49101;SDS011;34913;47.520;19.186;2022-09-03T12:14:26;5.53;;;2.00;;
49101;SDS011;34913;47.520;19.186;2022-09-03T12:19:56;5.18;;;1.80;;
49101;SDS011;34913;47.520;19.186;2022-09-03T12:22:25;2.15;;;1.60;;
49101;SDS011;34913;47.520;19.186;2022-09-03T12:24:53;2.53;;;1.63;;
49101;SDS011;34913;47.520;19.186;2022-09-03T12:27:23;1.98;;;1.40;;
49101;SDS011;34913;47.520;19.186;2022-09-03T12:30:00;2.28;;;1.42;;
49101;SDS011;34913;47.520;19.186;2022-09-03T12:32:32;1.60;;;1.30;;
49101;SDS011;34913;47.520;19.186;2022-09-03T12:35:09;3.35;;;1.40;;
49101;SDS011;34913;47.520;19.186;2022-09-03T12:37:40;2.05;;;1.50;;
49101;SDS011;34913;47.520;19.186;2022-09-03T12:40:14;1.77;;;1.35;;
49101;SDS011;34913;47.520;19.186;2022-09-03T12:42:50;2.55;;;1.40;;
49101;SDS011;34913;47.520;19.186;2022-09-03T12:45:18;1.60;;;1.30;;
49101;SDS011;34913;47.520;19.186;2022-09-03T12:47:46;2.45;;;1.60;;
49101;SDS011;34913;47.520;19.186;2022-09-03T12:50:15;2.05;;;1.38;;
49101;SDS011;34913;47.520;19.186;2022-09-03T12:52:53;2.22;;;1.60;;
49101;SDS011;34913;47.520;19.186;2022-09-03T13:03:00;2.13;;;1.20;;
49101;SDS011;34913;47.520;19.186;2022-09-03T13:05:52;4.00;;;1.55;;
49101;SDS011;34913;47.520;19.186;2022-09-03T13:08:22;2.55;;;1.30;;
49101;SDS011;34913;47.520;19.186;2022-09-03T13:10:57;2.00;;;1.55;;
49101;SDS011;34913;47.520;19.186;2022-09-03T13:13:31;2.70;;;1.55;;
49101;SDS011;34913;47.520;19.186;2022-09-03T13:23:56;3.35;;;1.60;;
49101;SDS011;34913;47.520;19.186;2022-09-03T13:26:45;2.10;;;1.40;;
49101;SDS011;34913;47.520;19.186;2022-09-03T13:34:53;2.92;;;1.50;;
49101;SDS011;34913;47.520;19.186;2022-09-03T13:37:42;2.67;;;1.65;;
49101;SDS011;34913;47.520;19.186;2022-09-03T13:40:14;2.22;;;1.40;;
49101;SDS011;34913;47.520;19.186;2022-09-03T13:42:49;1.92;;;1.45;;
49101;SDS011;34913;47.520;19.186;2022-09-03T13:48:01;2.60;;;1.60;;
49101;SDS011;34913;47.520;19.186;2022-09-03T13:50:52;2.47;;;1.40;;
49101;SDS011;34913;47.520;19.186;2022-09-03T13:53:35;2.20;;;1.50;;
49101;SDS011;34913;47.520;19.186;2022-09-03T14:02:19;1.92;;;1.60;;
49101;SDS011;34913;47.520;19.186;2022-09-03T14:10:43;1.88;;;1.52;;
49101;SDS011;34913;47.520;19.186;2022-09-03T14:16:14;3.53;;;1.58;;
49101;SDS011;34913;47.520;19.186;2022-09-03T14:18:55;3.00;;;1.40;;
49101;SDS011;34913;47.520;19.186;2022-09-03T14:21:27;1.88;;;1.45;;
49101;SDS011;34913;47.520;19.186;2022-09-03T14:26:32;1.60;;;1.45;;
49101;SDS011;34913;47.520;19.186;2022-09-03T14:37:05;2.20;;;1.60;;
49101;SDS011;34913;47.520;19.186;2022-09-03T14:39:58;7.50;;;1.55;;
49101;SDS011;34913;47.520;19.186;2022-09-03T14:46:06;6.78;;;1.63;;
49101;SDS011;34913;47.520;19.186;2022-09-03T14:57:01;2.00;;;1.40;;
49101;SDS011;34913;47.520;19.186;2022-09-03T15:03:12;1.60;;;1.40;;
49101;SDS011;34913;47.520;19.186;2022-09-03T15:11:17;2.15;;;1.70;;
49101;SDS011;34913;47.520;19.186;2022-09-03T15:24:23;7.95;;;1.63;;
49101;SDS011;34913;47.520;19.186;2022-09-03T15:37:55;2.08;;;1.40;;
49101;SDS011;34913;47.520;19.186;2022-09-03T15:48:15;2.25;;;1.55;;
49101;SDS011;34913;47.520;19.186;2022-09-03T15:57:17;3.47;;;1.40;;
49101;SDS011;34913;47.520;19.186;2022-09-03T16:02:49;4.10;;;1.80;;
49101;SDS011;34913;47.520;19.186;2022-09-03T16:16:32;2.42;;;1.55;;
49101;SDS011;34913;47.520;19.186;2022-09-03T16:19:26;4.78;;;1.60;;
49101;SDS011;34913;47.520;19.186;2022-09-03T16:24:40;4.53;;;1.88;;
49101;SDS011;34913;47.520;19.186;2022-09-03T16:27:19;4.18;;;1.90;;
49101;SDS011;34913;47.520;19.186;2022-09-03T16:30:27;3.33;;;1.70;;
49101;SDS011;34913;47.520;19.186;2022-09-03T16:33:07;3.92;;;1.90;;
49101;SDS011;34913;47.520;19.186;2022-09-03T16:43:42;4.57;;;2.30;;
49101;SDS011;34913;47.520;19.186;2022-09-03T16:46:52;4.05;;;2.00;;
49101;SDS011;34913;47.520;19.186;2022-09-03T16:49:26;7.22;;;2.20;;
49101;SDS011;34913;47.520;19.186;2022-09-03T16:57:42;3.50;;;2.20;;
49101;SDS011;34913;47.520;19.186;2022-09-03T17:03:27;4.18;;;2.10;;
49101;SDS011;34913;47.520;19.186;2022-09-03T17:06:00;7.20;;;2.13;;
49101;SDS011;34913;47.520;19.186;2022-09-03T17:24:58;5.32;;;2.60;;
49101;SDS011;34913;47.520;19.186;2022-09-03T17:49:51;4.40;;;2.40;;
49101;SDS011;34913;47.520;19.186;2022-09-03T17:52:26;4.93;;;2.97;;
49101;SDS011;34913;47.520;19.186;2022-09-03T17:54:58;4.15;;;2.60;;
49101;SDS011;34913;47.520;19.186;2022-09-03T17:57:28;7.03;;;2.72;;
49101;SDS011;34913;47.520;19.186;2022-09-03T18:02:32;8.30;;;2.63;;
49101;SDS011;34913;47.520;19.186;2022-09-03T18:05:04;5.47;;;2.80;;
49101;SDS011;34913;47.520;19.186;2022-09-03T18:07:52;4.60;;;2.55;;
49101;SDS011;34913;47.520;19.186;2022-09-03T18:11:09;3.08;;;2.50;;
49101;SDS011;34913;47.520;19.186;2022-09-03T18:18:52;4.60;;;2.35;;
49101;SDS011;34913;47.520;19.186;2022-09-03T18:21:24;4.30;;;2.28;;
49101;SDS011;34913;47.520;19.186;2022-09-03T18:30:09;2.90;;;2.25;;
49101;SDS011;34913;47.520;19.186;2022-09-03T18:32:56;5.47;;;2.30;;
49101;SDS011;34913;47.520;19.186;2022-09-03T18:35:44;4.25;;;2.13;;
49101;SDS011;34913;47.520;19.186;2022-09-03T18:38:38;4.07;;;2.50;;
49101;SDS011;34913;47.520;19.186;2022-09-03T18:41:40;3.88;;;2.30;;
49101;SDS011;34913;47.520;19.186;2022-09-03T18:50:25;4.43;;;2.55;;
49101;SDS011;34913;47.520;19.186;2022-09-03T18:56:14;6.68;;;2.67;;
49101;SDS011;34913;47.520;19.186;2022-09-03T19:01:46;3.80;;;3.00;;
49101;SDS011;34913;47.520;19.186;2022-09-03T19:07:54;6.75;;;3.22;;
49101;SDS011;34913;47.520;19.186;2022-09-03T19:13:38;5.25;;;3.38;;
49101;SDS011;34913;47.520;19.186;2022-09-03T19:25:19;4.10;;;3.25;;
49101;SDS011;34913;47.520;19.186;2022-09-03T19:46:48;8.40;;;3.40;;
49101;SDS011;34913;47.520;19.186;2022-09-03T19:49:40;8.30;;;3.25;;
49101;SDS011;34913;47.520;19.186;2022-09-03T19:55:53;4.38;;;3.28;;
49101;SDS011;34913;47.520;19.186;2022-09-03T19:58:40;4.15;;;3.38;;
49101;SDS011;34913;47.520;19.186;2022-09-03T20:01:35;7.90;;;3.28;;
49101;SDS011;34913;47.520;19.186;2022-09-03T20:04:22;6.35;;;3.38;;
49101;SDS011;34913;47.520;19.186;2022-09-03T20:07:13;5.80;;;3.17;;
49101;SDS011;34913;47.520;19.186;2022-09-03T20:09:58;4.63;;;3.15;;
49101;SDS011;34913;47.520;19.186;2022-09-03T20:12:51;6.63;;;3.50;;
49101;SDS011;34913;47.520;19.186;2022-09-03T20:15:26;4.80;;;3.22;;
49101;SDS011;34913;47.520;19.186;2022-09-03T20:18:18;6.43;;;3.22;;
49101;SDS011;34913;47.520;19.186;2022-09-03T20:34:59;5.45;;;3.10;;
49101;SDS011;34913;47.520;19.186;2022-09-03T20:37:52;7.07;;;3.47;;
49101;SDS011;34913;47.520;19.186;2022-09-03T20:49:01;4.88;;;3.08;;
49101;SDS011;34913;47.520;19.186;2022-09-03T20:51:45;6.63;;;3.63;;
49101;SDS011;34913;47.520;19.186;2022-09-03T20:54:25;5.65;;;3.47;;
49101;SDS011;34913;47.520;19.186;2022-09-03T21:02:32;4.50;;;3.38;;
49101;SDS011;34913;47.520;19.186;2022-09-03T21:08:02;4.60;;;3.25;;
49101;SDS011;34913;47.520;19.186;2022-09-03T21:18:53;7.95;;;3.40;;
49101;SDS011;34913;47.520;19.186;2022-09-03T21:24:21;7.18;;;3.42;;
49101;SDS011;34913;47.520;19.186;2022-09-03T21:26:52;5.43;;;3.50;;
49101;SDS011;34913;47.520;19.186;2022-09-03T21:29:24;4.80;;;3.40;;
49101;SDS011;34913;47.520;19.186;2022-09-03T21:37:34;4.18;;;3.53;;
49101;SDS011;34913;47.520;19.186;2022-09-03T21:40:02;5.07;;;3.28;;
49101;SDS011;34913;47.520;19.186;2022-09-03T21:42:35;11.20;;;3.30;;
49101;SDS011;34913;47.520;19.186;2022-09-03T21:45:25;5.60;;;3.70;;
49101;SDS011;34913;47.520;19.186;2022-09-03T21:48:08;9.15;;;3.70;;
49101;SDS011;34913;47.520;19.186;2022-09-03T21:50:55;5.88;;;3.63;;
49101;SDS011;34913;47.520;19.186;2022-09-03T21:57:01;6.05;;;3.60;;
49101;SDS011;34913;47.520;19.186;2022-09-03T22:04:48;4.15;;;3.38;;
49101;SDS011;34913;47.520;19.186;2022-09-03T22:10:07;4.00;;;3.58;;
49101;SDS011;34913;47.520;19.186;2022-09-03T22:15:39;4.72;;;3.63;;
49101;SDS011;34913;47.520;19.186;2022-09-03T22:20:40;7.05;;;3.78;;
49101;SDS011;34913;47.520;19.186;2022-09-03T22:23:23;5.78;;;3.63;;
49101;SDS011;34913;47.520;19.186;2022-09-03T22:26:06;4.93;;;4.07;;
49101;SDS011;34913;47.520;19.186;2022-09-03T22:28:50;6.57;;;3.95;;
49101;SDS011;34913;47.520;19.186;2022-09-03T22:31:40;6.20;;;4.10;;
49101;SDS011;34913;47.520;19.186;2022-09-03T22:34:24;6.68;;;4.38;;
49101;SDS011;34913;47.520;19.186;2022-09-03T22:37:03;6.85;;;4.25;;
49101;SDS011;34913;47.520;19.186;2022-09-03T22:45:17;6.47;;;4.15;;
49101;SDS011;34913;47.520;19.186;2022-09-03T22:50:19;7.57;;;3.97;;
49101;SDS011;34913;47.520;19.186;2022-09-03T22:53:03;5.43;;;3.72;;